Time;durP1;ratioP1;P1;durP2;ratioP2;P2;SDS_P1;SDS_P2;PMS_P1;PMS_P2;Temp;Humidity;BMP_temperature;BMP_pressure;BME280_temperature;BME280_humidity;BME280_pressure;Samples;Min_cycle;Max_cycle;Signal;HPM_P1;HPM_P2
2020/12/04 00:01:02;;;;;;;36.53;14.58;;;;;;;2.29;100.00;101662.22;1727251;83;21048;-62
2020/12/04 00:03:30;;;;;;;23.87;11.85;;;;;;;2.32;100.00;101673.71;1727284;83;21045;-62
2020/12/04 00:05:59;;;;;;;29.10;13.08;;;;;;;2.31;100.00;101668.87;1727104;83;21288;-62
2020/12/04 00:08:26;;;;;;;21.62;12.33;;;;;;;2.28;100.00;101678.09;1727180;83;21096;-62
2020/12/04 00:10:54;;;;;;;33.98;12.03;;;;;;;2.23;100.00;101672.73;1727222;83;21176;-61
2020/12/04 00:13:21;;;;;;;32.90;12.90;;;;;;;2.18;100.00;101686.33;1727174;83;21136;-61
2020/12/04 00:15:49;;;;;;;34.58;12.95;;;;;;;2.18;100.00;101685.01;1727139;83;21057;-61
2020/12/04 00:18:17;;;;;;;44.27;12.35;;;;;;;2.22;100.00;101673.59;1727156;83;21398;-61
2020/12/04 00:20:44;;;;;;;32.48;11.68;;;;;;;2.23;100.00;101671.85;1727147;83;21161;-61
2020/12/04 00:23:12;;;;;;;29.82;12.55;;;;;;;2.21;100.00;101670.91;1727204;83;21074;-61
2020/12/04 00:25:42;;;;;;;24.10;11.73;;;;;;;2.17;100.00;101670.00;1727079;83;21106;-62
2020/12/04 00:28:09;;;;;;;21.00;9.68;;;;;;;2.14;100.00;101660.25;1727215;83;21077;-61
2020/12/04 00:30:37;;;;;;;17.42;9.25;;;;;;;2.14;100.00;101688.48;1727164;83;21418;-62
2020/12/04 00:33:05;;;;;;;20.92;10.75;;;;;;;2.08;100.00;101695.88;1727267;83;21161;-62
2020/12/04 00:35:33;;;;;;;19.17;9.85;;;;;;;2.06;100.00;101693.65;1727364;83;21054;-62
2020/12/04 00:38:01;;;;;;;20.77;10.10;;;;;;;2.10;100.00;101687.53;1727316;83;21046;-61
2020/12/04 00:40:28;;;;;;;21.52;9.65;;;;;;;2.17;100.00;101696.46;1727319;83;21154;-61
2020/12/04 00:42:56;;;;;;;20.80;10.53;;;;;;;2.20;100.00;101681.95;1727329;83;21393;-61
2020/12/04 00:45:25;;;;;;;17.65;10.10;;;;;;;2.21;100.00;101679.75;1726103;83;21217;-62
2020/12/04 00:47:53;;;;;;;21.27;9.50;;;;;;;2.21;100.00;101686.79;1723879;83;21191;-61
2020/12/04 00:50:20;;;;;;;14.75;7.72;;;;;;;2.22;100.00;101686.83;1723842;83;21169;-62
2020/12/04 00:52:48;;;;;;;19.62;9.10;;;;;;;2.23;100.00;101675.38;1723945;82;21126;-61
2020/12/04 00:55:16;;;;;;;17.17;8.55;;;;;;;2.22;100.00;101673.59;1723897;83;21393;-62
2020/12/04 00:57:46;;;;;;;18.48;9.93;;;;;;;2.25;100.00;101673.63;1723847;83;21129;-62
2020/12/04 01:00:14;;;;;;;23.95;9.43;;;;;;;2.33;100.00;101677.72;1723877;83;21165;-62
2020/12/04 01:02:42;;;;;;;21.27;8.10;;;;;;;2.40;100.00;101670.76;1723903;83;21046;-62
2020/12/04 01:05:10;;;;;;;22.80;8.60;;;;;;;2.42;100.00;101663.27;1723901;83;21082;-62
2020/12/04 01:07:37;;;;;;;20.08;8.73;;;;;;;2.48;100.00;101658.95;1723862;82;21392;-63
2020/12/04 01:10:06;;;;;;;17.70;9.15;;;;;;;2.55;100.00;101656.41;1725984;83;21135;-62
2020/12/04 01:12:33;;;;;;;18.85;10.15;;;;;;;2.62;100.00;101645.89;1727352;83;21473;-62
2020/12/04 01:15:00;;;;;;;19.65;10.05;;;;;;;2.73;100.00;101650.86;1727299;83;21078;-62
2020/12/04 01:17:28;;;;;;;25.00;11.33;;;;;;;2.83;100.00;101639.52;1727339;83;21147;-63
2020/12/04 01:19:55;;;;;;;19.32;10.63;;;;;;;2.94;100.00;101634.77;1727289;83;21374;-63
2020/12/04 01:22:23;;;;;;;21.68;10.78;;;;;;;3.03;100.00;101630.91;1727243;83;21072;-62
2020/12/04 01:24:50;;;;;;;19.92;9.80;;;;;;;3.08;100.00;101633.16;1727334;83;21072;-62
2020/12/04 01:27:18;;;;;;;30.88;9.35;;;;;;;3.12;100.00;101629.66;1727233;83;21111;-62
2020/12/04 01:29:45;;;;;;;27.15;9.65;;;;;;;3.10;100.00;101632.73;1727270;83;21147;-63
2020/12/04 01:32:13;;;;;;;24.50;10.13;;;;;;;3.07;100.00;101638.44;1727370;83;21712;-62
2020/12/04 01:34:40;;;;;;;22.17;11.85;;;;;;;3.03;100.00;101644.16;1727257;83;21071;-62
2020/12/04 01:37:08;;;;;;;22.65;10.05;;;;;;;3.02;100.00;101633.11;1727253;83;21094;-62
2020/12/04 01:39:37;;;;;;;26.62;11.33;;;;;;;3.10;100.00;101634.06;1727357;83;21284;-63
2020/12/04 01:42:04;;;;;;;23.32;12.25;;;;;;;3.17;100.00;101627.06;1727275;82;21300;-62
2020/12/04 01:44:32;;;;;;;17.75;9.83;;;;;;;3.26;100.00;101620.52;1727371;83;21355;-63
2020/12/04 01:46:59;;;;;;;21.65;9.28;;;;;;;3.36;100.00;101626.80;1724637;83;21512;-61
2020/12/04 01:49:26;;;;;;;24.63;9.83;;;;;;;3.41;100.00;101625.52;1723966;83;21463;-63
2020/12/04 01:51:54;;;;;;;21.40;10.20;;;;;;;3.41;100.00;101627.71;1723959;83;21173;-63
2020/12/04 01:54:22;;;;;;;31.35;10.20;;;;;;;3.41;100.00;101626.39;1723961;83;21157;-62
2020/12/04 01:56:49;;;;;;;30.05;11.30;;;;;;;3.40;100.00;101629.92;1723837;83;21306;-62
2020/12/04 01:59:17;;;;;;;21.87;11.12;;;;;;;3.43;100.00;101626.42;1723819;83;21137;-62
2020/12/04 02:01:45;;;;;;;23.57;12.07;;;;;;;3.52;100.00;101633.11;1723872;83;21170;-62
2020/12/04 02:04:13;;;;;;;30.62;11.70;;;;;;;3.68;100.00;101635.48;1723919;83;21173;-63
2020/12/04 02:07:03;;;;;;;25.15;11.70;;;;;;;3.81;100.00;101631.15;1695453;83;21128;-63
2020/12/04 02:09:35;;;;;;;30.35;12.88;;;;;;;3.90;100.00;101629.00;1731324;82;21388;-63
2020/12/04 02:12:04;;;;;;;25.57;13.15;;;;;;;3.99;100.00;101613.13;1742359;82;21068;-63
2020/12/04 02:14:33;;;;;;;31.80;15.28;;;;;;;4.05;100.00;101612.70;1742354;81;21075;-62
2020/12/04 02:17:04;;;;;;;34.55;14.65;;;;;;;4.07;100.00;101611.84;1742428;81;21059;-63
2020/12/04 02:19:40;;;;;;;25.43;13.58;;;;;;;4.05;100.00;101612.70;1742531;82;21186;-62
2020/12/04 02:22:08;;;;;;;26.20;12.60;;;;;;;4.03;100.00;101611.81;1718672;83;21286;-63
2020/12/04 02:24:35;;;;;;;28.00;13.68;;;;;;;4.01;100.00;101608.71;1748518;82;21122;-62
2020/12/04 02:27:03;;;;;;;33.40;14.35;;;;;;;4.06;100.00;101603.44;1731817;82;21074;-62
2020/12/04 02:29:31;;;;;;;33.73;14.73;;;;;;;4.22;100.00;101603.53;1742460;82;21079;-62
2020/12/04 02:31:59;;;;;;;35.33;15.78;;;;;;;4.43;100.00;101594.77;1742490;82;21059;-62
2020/12/04 02:34:26;;;;;;;33.78;13.80;;;;;;;4.67;100.00;101591.75;1742379;82;21378;-62
2020/12/04 02:36:55;;;;;;;42.08;16.15;;;;;;;4.90;100.00;101581.63;1742384;82;21248;-63
2020/12/04 02:39:23;;;;;;;42.03;16.25;;;;;;;5.11;100.00;101591.42;1742480;81;20937;-62
2020/12/04 02:41:50;;;;;;;40.40;16.32;;;;;;;5.34;100.00;101593.20;1742312;82;21059;-62
2020/12/04 02:44:18;;;;;;;39.92;16.62;;;;;;;5.58;100.00;101581.66;1742547;81;21554;-62
2020/12/04 02:46:48;;;;;;;38.17;16.32;;;;;;;5.80;100.00;101580.30;1742401;81;21267;-62
2020/12/04 02:49:20;;;;;;;52.35;17.05;;;;;;;6.02;100.00;101574.06;1742367;81;21106;-62
2020/12/04 02:51:45;;;;;;;46.18;18.10;;;;;;;6.23;100.00;101568.70;1742322;82;21197;-62
2020/12/04 02:54:13;;;;;;;50.45;15.78;;;;;;;6.40;100.00;101571.28;1742430;81;21183;-63
2020/12/04 02:56:40;;;;;;;43.78;15.93;;;;;;;6.74;100.00;101581.75;1742388;82;21147;-63
2020/12/04 02:59:09;;;;;;;34.65;14.47;;;;;;;6.74;100.00;101581.75;1742395;82;21664;-63
2020/12/04 03:01:38;;;;;;;38.38;14.80;;;;;;;6.87;100.00;101574.13;1742440;81;21589;-63
2020/12/04 03:04:05;;;;;;;39.15;14.98;;;;;;;6.99;100.00;101568.30;1742426;81;21130;-62
2020/12/04 03:06:33;;;;;;;54.58;16.37;;;;;;;7.18;100.00;101590.38;1742406;82;21177;-62
2020/12/04 03:09:01;;;;;;;39.75;15.28;;;;;;;7.18;100.00;101590.38;1739501;82;21070;-64
2020/12/04 03:11:29;;;;;;;45.12;17.12;;;;;;;7.25;100.00;101581.88;1727192;83;21374;-62
2020/12/04 03:13:56;;;;;;;53.25;16.20;;;;;;;7.29;100.00;101583.63;1727076;83;21122;-63
2020/12/04 03:16:25;;;;;;;58.13;17.98;;;;;;;7.29;100.00;101583.63;1727214;83;21137;-63
2020/12/04 03:18:52;;;;;;;49.93;16.87;;;;;;;7.30;100.00;101587.62;1727228;83;21082;-63
2020/12/04 03:21:20;;;;;;;52.03;17.15;;;;;;;7.32;100.00;101594.27;1727152;83;21078;-62
2020/12/04 03:23:47;;;;;;;41.10;17.45;;;;;;;7.32;100.00;101579.59;1727142;83;21385;-63
2020/12/04 03:26:15;;;;;;;41.85;17.02;;;;;;;7.34;100.00;101579.13;1727160;83;21166;-63
2020/12/04 03:28:43;;;;;;;45.80;16.55;;;;;;;7.35;100.00;101574.23;1727148;83;21091;-63
2020/12/04 03:31:10;;;;;;;42.20;18.52;;;;;;;7.35;100.00;101599.58;1727229;83;21050;-63
2020/12/04 03:33:38;;;;;;;42.62;17.62;;;;;;;7.34;100.00;101583.13;1727172;83;21134;-62
2020/12/04 03:36:06;;;;;;;42.78;16.97;;;;;;;7.33;100.00;101586.70;1727191;83;21719;-62
2020/12/04 03:38:33;;;;;;;42.33;16.40;;;;;;;7.33;100.00;101592.03;1727183;83;21082;-62
2020/12/04 03:41:01;;;;;;;51.92;18.12;;;;;;;7.33;100.00;101596.03;1727207;83;21090;-62
2020/12/04 03:43:28;;;;;;;44.27;17.45;;;;;;;7.31;100.00;101597.83;1704246;83;21153;-62
2020/12/04 03:45:56;;;;;;;44.95;18.02;;;;;;;7.30;100.00;101588.06;1695679;84;21128;-62
2020/12/04 03:48:23;;;;;;;47.62;18.70;;;;;;;7.30;100.00;101592.06;1695574;84;21695;-62
2020/12/04 03:50:51;;;;;;;54.55;18.27;;;;;;;7.29;100.00;101580.95;1695578;84;21054;-62
2020/12/04 03:53:19;;;;;;;50.95;18.77;;;;;;;7.26;100.00;101577.85;1695736;84;21114;-63
2020/12/04 03:55:46;;;;;;;53.33;18.70;;;;;;;7.25;100.00;101579.22;1695621;84;21125;-62
2020/12/04 03:58:13;;;;;;;50.55;18.17;;;;;;;7.25;100.00;101577.88;1695737;84;21522;-63
2020/12/04 04:00:43;;;;;;;46.42;17.05;;;;;;;7.27;100.00;101580.09;1695513;84;21156;-63
2020/12/04 04:03:10;;;;;;;53.33;17.62;;;;;;;7.29;100.00;101599.63;1695509;84;21145;-63
2020/12/04 04:05:38;;;;;;;48.63;18.75;;;;;;;7.29;100.00;101599.63;1695598;83;21125;-63
2020/12/04 04:08:05;;;;;;;45.55;17.27;;;;;;;7.27;100.00;101587.62;1695647;84;21165;-63
2020/12/04 04:10:33;;;;;;;48.68;18.45;;;;;;;7.27;100.00;101590.76;1672599;83;21146;-62
2020/12/04 04:13:01;;;;;;;50.38;18.55;;;;;;;7.26;100.00;101590.32;1667823;86;22232;-62
2020/12/04 04:15:28;;;;;;;40.60;17.52;;;;;;;7.24;100.00;101584.12;1667621;86;21154;-62
2020/12/04 04:17:59;;;;;;;44.27;18.27;;;;;;;7.22;100.00;101600.58;1667596;86;21150;-62
2020/12/04 04:20:29;;;;;;;48.42;18.07;;;;;;;7.23;100.00;101604.55;1667628;86;21162;-62
2020/12/04 04:22:56;;;;;;;49.33;19.10;;;;;;;7.22;100.00;101597.92;1667671;86;21158;-63
2020/12/04 04:25:24;;;;;;;40.75;18.02;;;;;;;7.23;100.00;101597.02;1667654;86;21333;-62
2020/12/04 04:27:52;;;;;;;47.13;18.07;;;;;;;7.23;100.00;101598.35;1667595;86;21082;-63
2020/12/04 04:30:20;;;;;;;45.30;17.98;;;;;;;7.23;100.00;101611.69;1667699;85;21098;-63
2020/12/04 04:32:47;;;;;;;49.80;19.70;;;;;;;7.19;100.00;101597.94;1667637;86;21166;-62
2020/12/04 04:35:15;;;;;;;49.08;19.30;;;;;;;7.16;100.00;101615.70;1667668;86;21217;-63
2020/12/04 04:37:43;;;;;;;48.75;18.45;;;;;;;7.15;100.00;101614.41;1667694;86;21386;-63
2020/12/04 04:40:11;;;;;;;44.38;18.42;;;;;;;7.16;100.00;101607.70;1667627;86;21126;-63
2020/12/04 04:42:38;;;;;;;48.23;18.42;;;;;;;7.16;100.00;101599.70;1674858;84;21154;-63
2020/12/04 04:45:06;;;;;;;45.10;18.27;;;;;;;7.14;100.00;101600.16;1702413;83;21183;-63
2020/12/04 04:47:33;;;;;;;50.35;19.52;;;;;;;7.13;100.00;101599.73;1723957;83;21082;-63
2020/12/04 04:50:01;;;;;;;50.70;19.12;;;;;;;7.12;100.00;101601.97;1723972;83;23229;-63
2020/12/04 04:52:28;;;;;;;51.63;18.40;;;;;;;7.15;100.00;101609.94;1723898;83;21201;-63
2020/12/04 04:54:56;;;;;;;52.45;18.12;;;;;;;7.13;100.00;101607.73;1724120;83;21177;-63
2020/12/04 04:57:24;;;;;;;38.02;16.50;;;;;;;7.15;100.00;101611.73;1723955;83;21185;-62
2020/12/04 04:59:54;;;;;;;47.95;18.87;;;;;;;7.16;100.00;101608.17;1724006;83;21594;-62
2020/12/04 05:02:22;;;;;;;44.15;19.07;;;;;;;7.13;100.00;101622.40;1723867;83;22343;-63
2020/12/04 05:04:53;;;;;;;43.05;18.15;;;;;;;7.15;100.00;101625.94;1723818;83;21515;-63
2020/12/04 05:07:34;;;;;;;46.10;19.07;;;;;;;7.11;100.00;101613.53;1723858;83;21075;-63
2020/12/04 05:10:15;;;;;;;47.65;19.07;;;;;;;7.10;100.00;101623.76;1725943;82;21139;-63
2020/12/04 05:12:45;;;;;;;45.63;18.50;;;;;;;7.10;100.00;101623.76;1727383;83;21044;-63
2020/12/04 05:15:23;;;;;;;45.05;18.98;;;;;;;7.11;100.00;101620.20;1727346;83;21200;-63
2020/12/04 05:18:13;;;;;;;44.60;18.10;;;;;;;7.12;100.00;101623.30;1727162;83;21069;-62
2020/12/04 05:20:52;;;;;;;44.13;18.25;;;;;;;7.12;100.00;101620.63;1727332;83;21076;-62
2020/12/04 05:23:20;;;;;;;35.70;16.15;;;;;;;7.11;100.00;101625.53;1727327;83;21091;-63
2020/12/04 05:25:50;;;;;;;46.33;18.55;;;;;;;7.14;100.00;101625.50;1727280;83;21120;-63
2020/12/04 05:28:22;;;;;;;40.80;18.27;;;;;;;7.12;100.00;101627.77;1727224;83;21348;-63
2020/12/04 05:31:10;;;;;;;36.90;15.95;;;;;;;7.14;100.00;101625.50;1727248;83;21064;-63
2020/12/04 05:33:40;;;;;;;32.75;14.73;;;;;;;7.15;100.00;101630.41;1703282;83;21107;-63
2020/12/04 05:36:07;;;;;;;37.80;15.72;;;;;;;7.16;100.00;101623.71;1727286;83;21092;-63
2020/12/04 05:38:36;;;;;;;33.65;14.47;;;;;;;7.15;100.00;101628.61;1698871;83;21079;-63
2020/12/04 05:41:08;;;;;;;40.80;15.58;;;;;;;7.15;100.00;101617.94;1727244;83;21154;-63
2020/12/04 05:43:38;;;;;;;39.78;16.57;;;;;;;7.18;100.00;101625.05;1725282;83;21459;-63
2020/12/04 05:46:25;;;;;;;35.78;16.27;;;;;;;7.19;100.00;101625.95;1723442;83;21135;-63
2020/12/04 05:49:09;;;;;;;46.13;17.92;;;;;;;7.21;100.00;101628.16;1723331;83;21124;-63
2020/12/04 05:51:40;;;;;;;36.57;16.87;;;;;;;7.23;100.00;101625.89;1723807;83;21541;-62
2020/12/04 05:56:50;;;;;;;37.87;17.00;;;;;;;7.29;100.00;101627.20;1872990;76;23027;-63
2020/12/04 05:59:21;;;;;;;42.13;17.07;;;;;;;7.25;100.00;101629.90;1840957;78;20918;-63
2020/12/04 06:01:49;;;;;;;40.67;18.02;;;;;;;7.24;100.00;101666.80;1840855;77;21327;-63
2020/12/04 06:04:18;;;;;;;45.55;19.17;;;;;;;7.20;100.00;101635.72;1840795;77;20967;-63
2020/12/04 06:06:46;;;;;;;44.53;19.15;;;;;;;7.17;100.00;101625.48;1840880;78;20969;-63
2020/12/04 06:09:15;;;;;;;49.58;19.15;;;;;;;7.19;100.00;101628.16;1837062;78;20916;-64
2020/12/04 06:11:46;;;;;;;56.80;20.13;;;;;;;7.20;100.00;101631.25;1828036;78;20956;-63
2020/12/04 06:14:18;;;;;;;52.43;19.60;;;;;;;7.23;100.00;101630.36;1827925;78;21348;-63
2020/12/04 06:17:05;;;;;;;54.95;19.45;;;;;;;7.25;100.00;101640.56;1816772;78;20965;-63
2020/12/04 06:19:37;;;;;;;43.42;19.48;;;;;;;7.26;100.00;101645.88;1807851;78;20962;-63
2020/12/04 06:22:09;;;;;;;47.90;19.07;;;;;;;7.27;100.00;101660.98;1808009;78;21515;-63
2020/12/04 06:24:58;;;;;;;45.75;18.85;;;;;;;7.22;100.00;101655.27;1807864;78;21548;-63
2020/12/04 06:27:44;;;;;;;52.50;18.90;;;;;;;7.22;100.00;101655.27;1799468;79;21374;-63
2020/12/04 06:30:17;;;;;;;48.17;19.30;;;;;;;7.23;100.00;101668.57;1808019;79;21115;-63
2020/12/04 06:32:49;;;;;;;49.15;18.65;;;;;;;7.24;100.00;101657.47;1807759;79;21053;-64
2020/12/04 06:35:43;;;;;;;48.02;19.00;;;;;;;7.25;100.00;101654.77;1807806;78;20922;-63
2020/12/04 06:38:40;;;;;;;47.83;19.57;;;;;;;7.23;100.00;101637.89;1807997;79;21688;-63
2020/12/04 06:41:24;;;;;;;44.95;19.10;;;;;;;7.26;100.00;101654.34;1807893;79;21183;-63
2020/12/04 06:43:57;;;;;;;43.10;18.02;;;;;;;7.25;100.00;101655.23;1807715;79;21568;-63
2020/12/04 06:46:43;;;;;;;43.10;17.92;;;;;;;7.28;100.00;101661.88;1807742;78;21075;-63
2020/12/04 06:49:34;;;;;;;45.60;19.35;;;;;;;7.27;100.00;101647.64;1807890;79;21017;-63
2020/12/04 06:52:21;;;;;;;44.60;18.45;;;;;;;7.23;100.00;101671.23;1805867;79;21005;-63
2020/12/04 06:54:50;;;;;;;53.52;21.12;;;;;;;7.23;100.00;101671.23;1807168;79;21346;-62
2020/12/04 06:57:19;;;;;;;51.35;21.15;;;;;;;7.22;100.00;101667.27;1799887;79;21084;-63
2020/12/04 06:59:47;;;;;;;42.53;19.35;;;;;;;7.21;100.00;101650.83;1821830;78;21044;-63
2020/12/04 07:02:17;;;;;;;45.25;20.12;;;;;;;7.21;100.00;101660.16;1832550;78;21036;-63
2020/12/04 07:04:47;;;;;;;50.10;21.57;;;;;;;7.18;100.00;101665.05;1832430;78;20901;-62
2020/12/04 07:07:24;;;;;;;48.28;19.77;;;;;;;7.17;100.00;101650.81;1799676;79;22203;-63
2020/12/04 07:10:01;;;;;;;49.95;18.92;;;;;;;7.15;100.00;101660.61;1816378;78;21145;-63
2020/12/04 07:12:31;;;;;;;47.15;19.32;;;;;;;7.17;100.00;101680.16;1830340;78;21224;-65
2020/12/04 07:15:00;;;;;;;49.63;20.25;;;;;;;7.17;100.00;101658.82;1830128;77;21130;-64
2020/12/04 07:17:30;;;;;;;54.48;21.23;;;;;;;7.19;100.00;101668.63;1830219;78;20971;-61
2020/12/04 07:19:59;;;;;;;47.27;18.73;;;;;;;7.17;100.00;101662.81;1830306;78;21138;-62
2020/12/04 07:22:28;;;;;;;50.20;19.98;;;;;;;7.17;100.00;101649.95;1830140;78;20964;-64
2020/12/04 07:24:56;;;;;;;51.40;20.62;;;;;;;7.17;100.00;101655.28;1830241;77;21074;-61
2020/12/04 07:27:28;;;;;;;58.50;21.17;;;;;;;7.18;100.00;101661.05;1830200;78;21031;-63
2020/12/04 07:29:56;;;;;;;53.73;19.85;;;;;;;7.17;100.00;101669.48;1830256;78;21035;-63
2020/12/04 07:32:25;;;;;;;49.58;20.08;;;;;;;7.18;100.00;101662.39;1830282;77;21525;-67
2020/12/04 07:34:53;;;;;;;62.43;20.92;;;;;;;7.21;100.00;101641.49;1830246;77;21434;-68
2020/12/04 07:37:26;;;;;;;49.53;19.57;;;;;;;7.21;100.00;101641.49;1830327;78;21039;-66
2020/12/04 07:39:54;;;;;;;56.30;21.70;;;;;;;7.24;100.00;101652.13;1830097;78;21003;-65
2020/12/04 07:42:21;;;;;;;49.53;19.37;;;;;;;7.25;100.00;101657.91;1830190;78;21122;-66
2020/12/04 07:44:52;;;;;;;51.50;20.30;;;;;;;7.26;100.00;101657.01;1830406;78;21592;-69
2020/12/04 07:47:20;;;;;;;51.95;20.17;;;;;;;7.27;100.00;101658.78;1831901;78;21111;-66
2020/12/04 07:49:54;;;;;;;45.38;18.70;;;;;;;7.27;100.00;101658.78;1832024;78;20948;-66
2020/12/04 07:52:26;;;;;;;40.80;18.92;;;;;;;7.27;100.00;101648.98;1832050;78;20941;-67
2020/12/04 07:55:00;;;;;;;42.43;19.50;;;;;;;7.29;100.00;101671.22;1831693;78;21155;-67
2020/12/04 07:57:41;;;;;;;46.50;19.27;;;;;;;7.32;100.00;101658.29;1831470;77;21187;-66
2020/12/04 08:00:08;;;;;;;50.28;19.35;;;;;;;7.33;100.00;101656.06;1831778;77;20982;-67
2020/12/04 08:02:41;;;;;;;43.70;19.67;;;;;;;7.35;100.00;101666.73;1831930;78;21013;-66
2020/12/04 08:05:09;;;;;;;46.15;19.30;;;;;;;7.33;100.00;101665.40;1831970;78;21052;-67
2020/12/04 08:07:38;;;;;;;46.70;19.92;;;;;;;7.28;100.00;101655.22;1815923;78;21060;-67
2020/12/04 08:10:06;;;;;;;45.38;19.23;;;;;;;7.30;100.00;101668.09;1830836;78;21490;-64
2020/12/04 08:12:34;;;;;;;44.27;19.75;;;;;;;7.33;100.00;101676.53;1830100;78;20932;-64
2020/12/04 08:15:03;;;;;;;45.83;19.48;;;;;;;7.32;100.00;101670.30;1830174;78;21138;-66
2020/12/04 08:17:31;;;;;;;44.27;18.75;;;;;;;7.33;100.00;101664.06;1830119;78;21145;-63
2020/12/04 08:20:00;;;;;;;40.40;17.20;;;;;;;7.31;100.00;101667.19;1830167;78;20932;-67
2020/12/04 08:22:32;;;;;;;45.55;19.67;;;;;;;7.33;100.00;101665.86;1830230;77;21346;-64
2020/12/04 08:25:11;;;;;;;44.70;18.42;;;;;;;7.33;100.00;101676.53;1830151;78;21530;-63
2020/12/04 08:27:44;;;;;;;47.83;20.17;;;;;;;7.33;100.00;101674.73;1829975;77;21158;-65
2020/12/04 08:30:19;;;;;;;49.10;19.32;;;;;;;7.30;100.00;101656.09;1830335;78;21585;-63
2020/12/04 08:32:50;;;;;;;40.90;18.67;;;;;;;7.30;100.00;101661.42;1830332;78;21443;-62
2020/12/04 08:35:20;;;;;;;49.88;20.92;;;;;;;7.34;100.00;101680.97;1830176;78;21182;-63
2020/12/04 08:37:49;;;;;;;42.80;19.42;;;;;;;7.32;100.00;101663.63;1830077;78;21053;-63
2020/12/04 08:40:26;;;;;;;45.83;20.02;;;;;;;7.33;100.00;101681.41;1830121;78;21054;-63
2020/12/04 08:42:57;;;;;;;45.70;20.10;;;;;;;7.30;100.00;101669.42;1830116;78;21047;-63
2020/12/04 08:45:26;;;;;;;49.27;19.42;;;;;;;7.29;100.00;101675.66;1812559;78;21047;-62
2020/12/04 08:47:54;;;;;;;44.13;18.95;;;;;;;7.27;100.00;101652.98;1830009;78;21151;-62
2020/12/04 08:50:22;;;;;;;41.95;17.65;;;;;;;7.29;100.00;101659.66;1807780;78;21116;-63
2020/12/04 08:52:53;;;;;;;38.65;17.35;;;;;;;7.31;100.00;101664.53;1808806;78;21595;-61
2020/12/04 08:55:24;;;;;;;42.13;19.65;;;;;;;7.33;100.00;101653.39;1817254;78;21170;-63
2020/12/04 08:57:55;;;;;;;37.63;17.48;;;;;;;7.27;100.00;101676.12;1804548;78;21610;-63
2020/12/04 09:03:07;;;;;;;40.17;19.07;;;;;;;7.29;100.00;101666.32;1872954;76;24959;-63
2020/12/04 09:05:36;;;;;;;48.90;18.95;;;;;;;7.26;100.00;101665.02;1840911;78;20969;-63
2020/12/04 09:08:05;;;;;;;44.80;18.70;;;;;;;7.26;100.00;101670.34;1840619;78;21323;-64
2020/12/04 09:10:34;;;;;;;39.33;18.65;;;;;;;7.25;100.00;101661.91;1830141;77;21010;-63
2020/12/04 09:13:02;;;;;;;41.33;18.20;;;;;;;7.22;100.00;101664.14;1827947;78;20991;-62
2020/12/04 09:15:30;;;;;;;41.30;17.98;;;;;;;7.20;100.00;101664.59;1827829;78;21145;-63
2020/12/04 09:17:58;;;;;;;42.00;18.32;;;;;;;7.15;100.00;101667.28;1827867;78;21063;-62
2020/12/04 09:20:26;;;;;;;39.88;18.35;;;;;;;7.13;100.00;101687.74;1827097;78;21358;-63
2020/12/04 09:22:54;;;;;;;36.00;17.37;;;;;;;7.10;100.00;101662.43;1827487;78;21027;-64
2020/12/04 09:25:22;;;;;;;39.65;17.55;;;;;;;7.09;100.00;101670.45;1827372;78;21103;-63
2020/12/04 09:27:50;;;;;;;40.65;18.23;;;;;;;7.08;100.00;101665.55;1817377;78;21164;-63
2020/12/04 09:30:19;;;;;;;36.55;17.57;;;;;;;7.08;100.00;101670.89;1810144;78;21057;-63
2020/12/04 09:32:50;;;;;;;40.83;17.02;;;;;;;7.06;100.00;101661.11;1810060;78;21226;-63
2020/12/04 09:35:18;;;;;;;37.53;17.77;;;;;;;7.09;100.00;101661.13;1807739;78;21179;-62
2020/12/04 09:37:47;;;;;;;43.17;17.95;;;;;;;7.05;100.00;101664.25;1810878;78;21156;-62
2020/12/04 09:40:17;;;;;;;41.70;19.15;;;;;;;7.03;100.00;101648.23;1805463;78;20985;-63
2020/12/04 09:42:46;;;;;;;44.58;18.15;;;;;;;7.11;100.00;101632.66;1840030;78;21099;-62
2020/12/04 09:45:15;;;;;;;42.95;18.05;;;;;;;7.11;100.00;101632.66;1839866;78;22490;-62
2020/12/04 09:47:43;;;;;;;40.67;17.92;;;;;;;7.17;100.00;101644.15;1807849;79;21116;-61
2020/12/04 09:50:18;;;;;;;44.25;18.57;;;;;;;7.21;100.00;101642.83;1807300;78;21167;-62
2020/12/04 09:52:50;;;;;;;43.30;18.95;;;;;;;7.22;100.00;101657.93;1807808;78;20978;-62
2020/12/04 09:55:18;;;;;;;40.23;18.07;;;;;;;7.22;100.00;101649.93;1807866;79;20993;-62
2020/12/04 09:57:45;;;;;;;41.35;17.82;;;;;;;7.17;100.00;101645.48;1807925;79;22186;-62
2020/12/04 10:00:12;;;;;;;41.42;17.85;;;;;;;7.16;100.00;101646.38;1807665;79;20998;-62
2020/12/04 10:02:41;;;;;;;39.90;17.32;;;;;;;7.12;100.00;101649.97;1811601;79;21112;-62
2020/12/04 10:05:09;;;;;;;40.73;19.00;;;;;;;7.15;100.00;101637.08;1813256;79;21512;-63
2020/12/04 10:07:37;;;;;;;40.63;18.10;;;;;;;7.15;100.00;101651.74;1813446;79;21068;-63
2020/12/04 10:10:06;;;;;;;38.45;17.48;;;;;;;7.17;100.00;101644.15;1824471;78;21359;-62
2020/12/04 10:12:34;;;;;;;41.98;18.20;;;;;;;7.15;100.00;101647.74;1830689;77;21522;-63
2020/12/04 10:15:03;;;;;;;45.08;17.57;;;;;;;7.14;100.00;101644.64;1830211;78;20980;-64
2020/12/04 10:17:30;;;;;;;40.43;17.42;;;;;;;7.16;100.00;101657.05;1822762;77;21155;-65
2020/12/04 10:19:58;;;;;;;38.85;17.80;;;;;;;7.16;100.00;101657.05;1812761;79;21048;-66
2020/12/04 10:22:27;;;;;;;37.80;16.15;;;;;;;7.13;100.00;101649.07;1812617;79;21369;-66
2020/12/04 10:24:55;;;;;;;41.13;17.50;;;;;;;7.17;100.00;101650.81;1812662;79;21136;-65
2020/12/04 10:27:22;;;;;;;38.75;16.00;;;;;;;7.16;100.00;101666.39;1763732;81;21136;-65
2020/12/04 10:29:51;;;;;;;40.52;17.27;;;;;;;7.16;100.00;101665.52;1744327;82;21002;-65
2020/12/04 10:32:20;;;;;;;39.35;16.87;;;;;;;7.15;100.00;101665.95;1755095;81;21085;-67
2020/12/04 10:34:47;;;;;;;39.70;17.12;;;;;;;7.12;100.00;101657.10;1758046;80;22438;-64
2020/12/04 10:37:15;;;;;;;38.50;16.17;;;;;;;7.09;100.00;101648.66;1786165;80;21236;-64
2020/12/04 10:39:42;;;;;;;38.67;17.02;;;;;;;7.11;100.00;101650.00;1758397;79;21168;-65
2020/12/04 10:42:10;;;;;;;37.03;17.10;;;;;;;7.11;100.00;101656.66;1754968;81;21187;-65
2020/12/04 10:44:38;;;;;;;35.88;16.67;;;;;;;7.09;100.00;101651.33;1754984;81;21324;-65
2020/12/04 10:47:05;;;;;;;39.13;17.37;;;;;;;7.04;100.00;101654.47;1755069;81;21369;-63
2020/12/04 10:49:33;;;;;;;42.53;17.32;;;;;;;7.04;100.00;101646.47;1754895;81;21187;-67
2020/12/04 10:52:00;;;;;;;40.52;17.75;;;;;;;6.96;100.00;101640.28;1755046;81;21145;-65
2020/12/04 10:54:28;;;;;;;39.83;17.10;;;;;;;6.89;100.00;101655.45;1755030;81;21124;-68
2020/12/04 10:56:56;;;;;;;40.80;17.23;;;;;;;6.82;100.00;101643.92;1756246;79;21160;-63
2020/12/04 10:59:24;;;;;;;37.70;16.77;;;;;;;6.80;100.00;101639.48;1756968;78;21420;-63
2020/12/04 11:01:58;;;;;;;33.83;14.70;;;;;;;6.78;100.00;101635.51;1763354;80;21110;-64
2020/12/04 11:07:08;;;;;;;42.85;15.93;;;;;;;6.78;100.00;101630.18;1785665;80;21144;-63
2020/12/04 11:09:38;;;;;;;35.28;15.68;;;;;;;6.77;100.00;101628.84;1785277;80;21072;-63
2020/12/04 11:12:06;;;;;;;35.20;14.80;;;;;;;6.74;100.00;101628.39;1785970;79;22096;-62
2020/12/04 11:14:34;;;;;;;30.60;14.75;;;;;;;6.74;100.00;101635.96;1769228;79;21164;-63
2020/12/04 11:17:04;;;;;;;30.12;14.63;;;;;;;6.70;100.00;101657.30;1766527;80;21163;-62
2020/12/04 11:19:32;;;;;;;35.35;14.85;;;;;;;6.70;100.00;101657.30;1755112;81;21129;-63
2020/12/04 11:22:03;;;;;;;32.80;15.03;;;;;;;6.60;100.00;101633.80;1762561;80;21472;-63
2020/12/04 11:24:30;;;;;;;34.92;15.35;;;;;;;6.59;100.00;101642.68;1755032;81;21556;-62
2020/12/04 11:26:58;;;;;;;38.48;15.23;;;;;;;6.56;100.00;101638.27;1757743;80;21157;-63
2020/12/04 11:29:26;;;;;;;39.40;15.53;;;;;;;6.57;100.00;101644.04;1755771;80;21108;-62